createdAt,value
2018-11-23T00:03:40.394Z,22.77
2018-11-23T00:06:09.676Z,22.17
2018-11-23T00:08:53.708Z,22.93
2018-11-23T00:11:23.097Z,22.07
2018-11-23T00:13:53.214Z,22.33
2018-11-23T00:16:22.393Z,23.37
2018-11-23T00:18:52.303Z,23.17
2018-11-23T00:21:21.674Z,22.23
2018-11-23T00:23:50.838Z,22.07
2018-11-23T00:26:21.012Z,22.93
2018-11-23T00:28:50.316Z,22.30
2018-11-23T00:31:19.467Z,23.27
2018-11-23T00:33:48.651Z,23.07
2018-11-23T00:36:32.163Z,22.93
2018-11-23T00:39:03.699Z,22.83
2018-11-23T00:41:32.859Z,22.43
2018-11-23T00:44:02.094Z,22.37
2018-11-23T00:46:31.350Z,21.70
2018-11-23T00:49:00.544Z,22.50
2018-11-23T00:51:30.651Z,23.27
2018-11-23T00:53:59.922Z,22.43
2018-11-23T00:56:29.119Z,21.97
2018-11-23T00:58:58.319Z,22.40
2018-11-23T01:01:28.663Z,23.27
2018-11-23T01:03:59.665Z,22.10
2018-11-23T01:06:28.832Z,22.30
2018-11-23T01:08:58.232Z,23.43
2018-11-23T01:11:27.438Z,23.80
2018-11-23T01:13:56.635Z,23.20
2018-11-23T01:16:26.787Z,22.63
2018-11-23T01:18:56.235Z,22.27
2018-11-23T01:21:25.402Z,21.73
2018-11-23T01:23:55.849Z,21.17
2018-11-23T01:26:25.730Z,23.10
2018-11-23T01:28:56.116Z,20.93
2018-11-23T01:31:25.351Z,22.50
2018-11-23T01:33:54.527Z,23.20
2018-11-23T01:36:23.932Z,21.80
2018-11-23T01:38:54.055Z,22.60
2018-11-23T01:41:23.361Z,22.53
2018-11-23T01:43:52.533Z,23.13
2018-11-23T01:46:21.712Z,22.70
2018-11-23T01:48:50.943Z,22.97
2018-11-23T01:51:22.286Z,24.47
2018-11-23T01:53:51.458Z,23.70
2018-11-23T01:56:20.638Z,23.53
2018-11-23T01:58:50.380Z,21.87
2018-11-23T02:01:19.571Z,22.83
2018-11-23T02:03:49.776Z,22.13
2018-11-23T02:06:18.974Z,22.93
2018-11-23T02:08:48.405Z,23.30
2018-11-23T02:11:17.598Z,23.20
2018-11-23T02:13:46.919Z,22.80
2018-11-23T02:16:17.522Z,22.43
2018-11-23T02:18:46.810Z,22.50
2018-11-23T02:21:17.431Z,23.43
2018-11-23T02:23:46.613Z,21.77
2018-11-23T02:26:15.769Z,22.90
2018-11-23T02:28:45.950Z,22.90
2018-11-23T02:31:15.129Z,23.53
2018-11-23T02:33:44.533Z,22.87
2018-11-23T02:36:13.746Z,23.67
2018-11-23T02:38:42.932Z,23.23
2018-11-23T02:41:13.604Z,23.10
2018-11-23T02:43:42.882Z,22.80
2018-11-23T02:46:12.138Z,24.13
2018-11-23T02:48:41.311Z,23.27
2018-11-23T02:51:10.653Z,22.67
2018-11-23T02:53:40.826Z,23.77
2018-11-23T02:56:09.997Z,22.93
2018-11-23T02:58:40.201Z,22.27
2018-11-23T03:01:09.472Z,23.83
2018-11-23T03:03:38.679Z,23.57
2018-11-23T03:06:09.819Z,23.53
2018-11-23T03:08:39.024Z,23.53
2018-11-23T03:11:08.191Z,22.97
2018-11-23T03:13:37.698Z,23.23
2018-11-23T03:16:06.872Z,23.23
2018-11-23T03:18:36.889Z,23.40
2018-11-23T03:21:06.202Z,23.07
2018-11-23T03:23:35.953Z,22.70
2018-11-23T03:26:05.204Z,23.00
2018-11-23T03:28:34.369Z,22.87
2018-11-23T03:31:12.039Z,23.73
2018-11-23T03:33:33.778Z,24.10
2018-11-23T03:36:03.622Z,23.03
2018-11-23T03:38:32.791Z,22.73
2018-11-23T03:41:02.099Z,23.80
2018-11-23T03:43:33.906Z,22.67
2018-11-23T03:46:03.100Z,23.70
2018-11-23T03:48:32.401Z,23.93
2018-11-23T03:51:01.598Z,23.37
2018-11-23T03:53:30.829Z,23.87
2018-11-23T03:56:01.165Z,24.13
2018-11-23T03:58:30.534Z,23.00
2018-11-23T04:00:59.667Z,23.13
2018-11-23T04:03:28.843Z,22.70
2018-11-23T04:05:58.034Z,22.77
2018-11-23T04:08:28.675Z,23.23
2018-11-23T04:10:57.849Z,24.00
2018-11-23T04:13:28.043Z,23.57
2018-11-23T04:15:57.811Z,24.17
2018-11-23T04:18:27.408Z,22.27
2018-11-23T04:21:00.088Z,22.37
2018-11-23T04:23:30.248Z,24.20
2018-11-23T04:26:01.098Z,22.57
2018-11-23T04:28:31.290Z,23.57
2018-11-23T04:31:00.478Z,23.33
2018-11-23T04:33:31.115Z,23.83
2018-11-23T04:36:00.330Z,24.07
2018-11-23T04:38:29.535Z,24.27
2018-11-23T04:40:59.783Z,23.23
2018-11-23T04:43:28.956Z,24.20
2018-11-23T04:45:59.183Z,24.13
2018-11-23T04:48:28.482Z,24.43
2018-11-23T04:50:57.658Z,23.40
2018-11-23T04:53:27.699Z,24.10
2018-11-23T04:55:56.922Z,23.47
2018-11-23T04:58:26.164Z,24.00
2018-11-23T05:00:55.369Z,24.33
2018-11-23T05:03:24.602Z,23.60
2018-11-23T05:05:55.209Z,23.13
2018-11-23T05:08:24.414Z,24.43
2018-11-23T05:10:53.823Z,23.83
2018-11-23T05:13:23.058Z,24.07
2018-11-23T05:15:52.237Z,23.73
2018-11-23T05:18:22.230Z,24.30
2018-11-23T05:20:51.390Z,23.70
2018-11-23T05:23:20.628Z,23.50
2018-11-23T05:25:49.893Z,23.50
2018-11-23T05:28:19.757Z,24.00
2018-11-23T05:30:49.963Z,23.57
2018-11-23T05:33:19.239Z,23.23
2018-11-23T05:35:48.462Z,24.87
2018-11-23T05:38:17.621Z,24.00
2018-11-23T05:40:48.192Z,23.67
2018-11-23T05:43:18.586Z,23.53
2018-11-23T05:45:47.831Z,24.30
2018-11-23T05:48:17.090Z,25.73
2018-11-23T05:50:46.277Z,23.07
2018-11-23T05:53:15.559Z,25.27
2018-11-23T05:55:46.211Z,24.20
2018-11-23T05:58:15.393Z,23.90
2018-11-23T06:00:44.695Z,24.30
2018-11-23T06:03:13.930Z,23.90
2018-11-23T06:05:43.137Z,24.57
2018-11-23T06:08:14.142Z,23.83
2018-11-23T06:10:43.437Z,24.03
2018-11-23T06:13:12.602Z,24.87
2018-11-23T06:15:44.643Z,24.93
2018-11-23T06:18:12.302Z,23.73
2018-11-23T06:20:43.010Z,22.97
2018-11-23T06:23:12.218Z,24.33
2018-11-23T06:25:44.574Z,25.53
2018-11-23T06:28:13.776Z,23.20
2018-11-23T06:30:43.655Z,24.13
2018-11-23T06:33:27.843Z,23.90
2018-11-23T06:35:57.014Z,24.23
2018-11-23T06:38:26.236Z,23.63
2018-11-23T06:40:56.597Z,23.77
2018-11-23T06:43:25.827Z,24.27
2018-11-23T06:45:56.279Z,24.77
2018-11-23T06:48:25.554Z,24.67
2018-11-23T06:50:55.175Z,24.63
2018-11-23T06:53:24.873Z,24.67
2018-11-23T06:55:54.334Z,24.73
2018-11-23T06:58:24.038Z,25.77
2018-11-23T07:00:53.297Z,24.43
2018-11-23T07:03:22.512Z,24.40
2018-11-23T07:05:52.863Z,24.33
2018-11-23T07:08:22.586Z,24.10
2018-11-23T07:10:53.118Z,24.73
2018-11-23T07:13:22.311Z,24.67
2018-11-23T07:15:52.046Z,25.07
2018-11-23T07:18:21.695Z,24.47
2018-11-23T07:20:50.891Z,24.37
2018-11-23T07:23:20.085Z,24.57
2018-11-23T07:25:49.303Z,25.03
2018-11-23T07:28:20.049Z,24.97
2018-11-23T07:30:49.527Z,24.97
2018-11-23T07:33:18.710Z,24.57
2018-11-23T07:35:47.927Z,25.10
2018-11-23T07:38:17.080Z,24.40
2018-11-23T07:40:58.322Z,24.07
2018-11-23T07:43:27.542Z,25.60
2018-11-23T07:45:56.741Z,26.63
2018-11-23T07:48:25.987Z,24.30
2018-11-23T07:50:57.590Z,24.57
2018-11-23T07:53:27.225Z,24.23
2018-11-23T07:55:56.426Z,24.83
2018-11-23T07:58:25.607Z,23.80
2018-11-23T08:00:55.455Z,25.00
2018-11-23T08:03:25.108Z,24.27
2018-11-23T08:05:54.735Z,24.70
2018-11-23T08:08:24.006Z,24.93
2018-11-23T08:10:52.285Z,24.80
2018-11-23T08:13:21.735Z,26.60
2018-11-23T08:15:52.042Z,24.83
2018-11-23T08:18:21.644Z,24.60
2018-11-23T08:20:50.823Z,24.97
2018-11-23T08:23:20.595Z,24.20
2018-11-23T08:25:49.757Z,25.37
2018-11-23T08:28:19.379Z,24.30
2018-11-23T08:30:49.128Z,24.77
2018-11-23T08:33:19.590Z,25.43
2018-11-23T08:35:48.806Z,26.03
2018-11-23T08:38:18.130Z,25.13
2018-11-23T08:40:47.969Z,25.47
2018-11-23T08:43:17.650Z,54.57
2018-11-23T08:45:46.886Z,42.47
2018-11-23T08:48:16.119Z,44.53
2018-11-23T08:50:45.297Z,29.67
2018-11-23T08:53:15.406Z,25.27
2018-11-23T08:55:45.269Z,25.97
2018-11-23T08:58:14.456Z,26.30
2018-11-23T09:00:45.671Z,27.30
2018-11-23T09:03:16.169Z,25.87
2018-11-23T09:05:45.379Z,24.77
2018-11-23T09:08:15.039Z,24.30
2018-11-23T09:10:45.599Z,25.63
2018-11-23T09:13:14.847Z,25.90
2018-11-23T09:15:45.210Z,25.80
2018-11-23T09:18:14.426Z,24.57
2018-11-23T09:20:44.137Z,25.53
2018-11-23T09:23:14.533Z,24.77
2018-11-23T09:25:43.729Z,26.00
2018-11-23T09:28:13.367Z,25.53
2018-11-23T09:30:42.648Z,25.23
2018-11-23T09:33:12.395Z,27.90
2018-11-23T09:35:43.415Z,24.70
2018-11-23T09:38:12.612Z,24.27
2018-11-23T09:40:42.311Z,24.80
2018-11-23T09:43:11.632Z,25.57
2018-11-23T09:45:41.351Z,24.77
2018-11-23T09:48:10.541Z,24.37
2018-11-23T09:50:40.086Z,24.70
2018-11-23T09:53:10.279Z,24.43
2018-11-23T09:55:39.513Z,24.73
2018-11-23T09:58:10.787Z,26.10
2018-11-23T10:00:40.003Z,48.27
2018-11-23T10:03:09.528Z,26.20
2018-11-23T10:05:38.709Z,25.10
2018-11-23T10:08:08.749Z,26.70
2018-11-23T10:10:39.821Z,24.13
2018-11-23T10:13:09.008Z,25.07
2018-11-23T10:15:38.663Z,24.03
2018-11-23T10:18:08.469Z,23.23
2018-11-23T10:20:38.239Z,33.63
2018-11-23T10:23:07.433Z,24.07
2018-11-23T10:25:37.088Z,23.50
2018-11-23T10:28:07.296Z,24.07
2018-11-23T10:30:37.115Z,25.33
2018-11-23T10:33:07.738Z,24.40
2018-11-23T10:35:36.985Z,23.23
2018-11-23T10:38:09.274Z,23.53
2018-11-23T10:40:40.442Z,23.40
2018-11-23T10:43:10.275Z,23.73
2018-11-23T10:45:39.586Z,22.60
2018-11-23T10:48:10.288Z,23.00
2018-11-23T10:50:41.210Z,22.83
2018-11-23T10:53:10.437Z,22.87
2018-11-23T10:55:39.650Z,23.13
2018-11-23T10:58:09.475Z,22.53
2018-11-23T11:00:44.315Z,22.67
2018-11-23T11:03:34.184Z,23.80
2018-11-23T11:06:12.207Z,23.07
2018-11-23T11:08:42.840Z,21.77
2018-11-23T11:11:13.852Z,22.33
2018-11-23T11:13:41.957Z,22.47
2018-11-23T11:16:11.258Z,22.17
2018-11-23T11:18:40.485Z,22.37
2018-11-23T11:21:10.211Z,22.17
2018-11-23T11:23:39.912Z,21.83
2018-11-23T11:26:09.154Z,22.23
2018-11-23T11:28:38.338Z,22.77
2018-11-23T11:31:07.685Z,24.63
2018-11-23T11:33:38.250Z,24.63
2018-11-23T11:36:08.178Z,22.50
2018-11-23T11:38:37.807Z,23.03
2018-11-23T11:41:07.039Z,21.80
2018-11-23T11:43:37.758Z,22.43
2018-11-23T11:46:07.726Z,22.93
2018-11-23T11:48:37.444Z,22.67
2018-11-23T11:51:07.607Z,22.47
2018-11-23T11:53:36.955Z,21.93
2018-11-23T11:56:06.574Z,21.87
2018-11-23T11:58:36.820Z,22.80
2018-11-23T12:01:06.804Z,21.73
2018-11-23T12:03:36.059Z,22.17
2018-11-23T12:06:06.488Z,21.97
2018-11-23T12:08:36.187Z,22.30
2018-11-23T12:11:06.227Z,21.93
2018-11-23T12:13:36.243Z,21.57
2018-11-23T12:16:05.591Z,21.70
2018-11-23T12:18:34.742Z,21.77
2018-11-23T12:21:06.363Z,21.30
2018-11-23T12:23:35.593Z,20.80
2018-11-23T12:26:05.362Z,20.93
2018-11-23T12:28:34.565Z,20.70
2018-11-23T12:31:03.753Z,20.97
2018-11-23T12:33:33.365Z,21.27
2018-11-23T12:36:02.565Z,20.13
2018-11-23T12:38:32.312Z,19.87
2018-11-23T12:41:02.802Z,20.93
2018-11-23T12:43:32.083Z,20.40
2018-11-23T12:46:01.817Z,19.97
2018-11-23T12:48:30.998Z,20.53
2018-11-23T12:51:00.690Z,20.43
2018-11-23T12:53:29.961Z,19.90
2018-11-23T12:55:59.164Z,20.03
2018-11-23T12:58:30.329Z,20.03
2018-11-23T13:00:59.510Z,20.43
2018-11-23T13:03:29.224Z,20.23
2018-11-23T13:05:58.394Z,19.73
2018-11-23T13:08:27.580Z,20.53
2018-11-23T13:10:57.369Z,20.80
2018-11-23T13:13:26.656Z,20.57
2018-11-23T13:15:56.242Z,19.60
2018-11-23T13:18:25.430Z,21.13
2018-11-23T13:20:55.857Z,20.30
2018-11-23T13:23:25.959Z,20.57
2018-11-23T13:25:55.158Z,20.37
2018-11-23T13:28:24.828Z,19.93
2018-11-23T13:30:54.025Z,19.73
2018-11-23T13:33:23.301Z,19.40
2018-11-23T13:35:52.975Z,19.50
2018-11-23T13:38:22.178Z,18.93
2018-11-23T13:40:51.844Z,19.80
2018-11-23T13:43:22.560Z,19.90
2018-11-23T13:45:51.732Z,18.70
2018-11-23T13:48:21.435Z,19.30
2018-11-23T13:50:50.654Z,18.63
2018-11-23T13:53:20.290Z,18.17
2018-11-23T13:55:49.532Z,18.43
2018-11-23T13:58:20.039Z,18.70
2018-11-23T14:00:50.915Z,18.77
2018-11-23T14:03:20.190Z,18.17
2018-11-23T14:05:49.906Z,18.30
2018-11-23T14:08:19.264Z,17.97
2018-11-23T14:10:48.440Z,18.43
2018-11-23T14:13:18.288Z,18.30
2018-11-23T14:15:47.504Z,18.63
2018-11-23T14:18:17.268Z,18.67
2018-11-23T14:20:46.881Z,18.73
2018-11-23T14:23:16.122Z,19.67
2018-11-23T14:25:46.348Z,19.67
2018-11-23T14:28:15.594Z,19.17
2018-11-23T14:30:45.338Z,18.90
2018-11-23T14:33:14.604Z,19.33
2018-11-23T14:35:43.877Z,19.37
2018-11-23T14:38:13.515Z,19.40
2018-11-23T14:40:42.746Z,20.53
2018-11-23T14:43:12.525Z,20.10
2018-11-23T14:45:43.290Z,19.77
2018-11-23T14:48:12.530Z,20.27
2018-11-23T14:50:48.049Z,19.63
2018-11-23T14:53:17.743Z,20.13
2018-11-23T14:55:46.959Z,19.70
2018-11-23T14:58:17.526Z,19.10
2018-11-23T15:00:48.117Z,18.77
2018-11-23T15:03:17.302Z,19.27
2018-11-23T15:05:47.367Z,19.57
2018-11-23T15:08:16.544Z,20.17
2018-11-23T15:10:45.807Z,19.00
2018-11-23T15:13:15.781Z,19.23
2018-11-23T15:15:45.141Z,19.87
2018-11-23T15:18:14.942Z,19.17
2018-11-23T15:20:46.293Z,19.00
2018-11-23T15:23:18.872Z,21.30
2018-11-23T15:25:48.439Z,20.93
2018-11-23T15:28:18.521Z,19.37
2018-11-23T15:30:47.699Z,20.53
2018-11-23T15:33:19.028Z,19.23
2018-11-23T15:35:48.424Z,18.40
2018-11-23T15:38:21.757Z,19.10
2018-11-23T15:40:50.951Z,18.43
2018-11-23T15:43:21.457Z,19.40
2018-11-23T15:45:51.165Z,18.97
2018-11-23T15:48:20.763Z,20.20
2018-11-23T15:50:49.996Z,20.83
2018-11-23T15:53:20.327Z,22.47
2018-11-23T15:55:51.576Z,19.73
2018-11-23T15:58:20.766Z,19.10
2018-11-23T16:00:50.130Z,18.60
2018-11-23T16:03:19.330Z,17.87
2018-11-23T16:05:48.517Z,17.50
2018-11-23T16:08:20.373Z,17.93
2018-11-23T16:10:49.973Z,18.23
2018-11-23T16:13:19.189Z,18.23
2018-11-23T16:15:48.401Z,18.73
2018-11-23T16:18:19.569Z,18.00
2018-11-23T16:20:49.609Z,17.57
2018-11-23T16:23:20.488Z,18.27
2018-11-23T16:25:51.458Z,17.53
2018-11-23T16:28:21.130Z,18.07
2018-11-23T16:30:51.544Z,18.47
2018-11-23T16:33:22.169Z,18.33
2018-11-23T16:35:51.465Z,18.67
2018-11-23T16:38:23.738Z,19.17
2018-11-23T16:40:55.327Z,18.30
2018-11-23T16:43:25.875Z,18.33
2018-11-23T16:45:55.468Z,18.17
2018-11-23T16:48:26.275Z,18.47
2018-11-23T16:50:56.042Z,18.10
2018-11-23T16:53:25.250Z,19.20
2018-11-23T16:55:54.600Z,17.60
2018-11-23T16:58:23.998Z,18.43
2018-11-23T17:00:54.720Z,18.83
2018-11-23T17:03:24.539Z,17.77
2018-11-23T17:05:55.239Z,17.30
2018-11-23T17:08:24.594Z,17.57
2018-11-23T17:10:54.337Z,18.23
2018-11-23T17:13:23.682Z,16.67
2018-11-23T17:15:53.476Z,18.67
2018-11-23T17:18:23.594Z,17.27
2018-11-23T17:20:52.856Z,16.93
2018-11-23T17:23:22.945Z,17.87
2018-11-23T17:25:52.278Z,18.10
2018-11-23T17:28:21.896Z,18.40
2018-11-23T17:30:51.291Z,18.40
2018-11-23T17:33:20.667Z,18.47
2018-11-23T17:35:50.277Z,18.40
2018-11-23T17:38:19.482Z,17.33
2018-11-23T17:40:49.322Z,18.07
2018-11-23T17:43:18.526Z,19.10
2018-11-23T17:45:47.814Z,18.57
2018-11-23T17:48:17.780Z,19.40
2018-11-23T17:50:47.032Z,19.10
2018-11-23T17:53:16.621Z,18.73
2018-11-23T17:55:46.903Z,18.60
2018-11-23T17:58:16.100Z,19.27
2018-11-23T18:00:46.812Z,18.83
2018-11-23T18:03:16.016Z,18.40
2018-11-23T18:05:45.839Z,18.77
2018-11-23T18:08:15.026Z,18.33
2018-11-23T18:10:44.436Z,18.43
2018-11-23T18:13:14.198Z,19.53
2018-11-23T18:15:43.425Z,20.03
2018-11-23T18:25:01.983Z,21.50
2018-11-23T18:27:31.247Z,20.53
2018-11-23T18:30:00.993Z,20.10
2018-11-23T18:32:30.219Z,19.63
2018-11-23T18:34:59.418Z,19.20
2018-11-23T18:37:29.088Z,19.77
2018-11-23T18:39:58.650Z,19.70
2018-11-23T18:42:28.241Z,19.67
2018-11-23T18:44:57.443Z,19.63
2018-11-23T18:47:26.651Z,18.93
2018-11-23T18:49:57.960Z,19.07
2018-11-23T18:52:27.208Z,20.03
2018-11-23T18:54:56.939Z,19.13
2018-11-23T18:57:26.248Z,18.90
2018-11-23T18:59:55.540Z,18.63
2018-11-23T19:02:25.248Z,19.67
2018-11-23T19:04:54.416Z,19.47
2018-11-23T19:08:53.482Z,20.40
2018-11-23T19:11:22.662Z,18.40
2018-11-23T19:13:53.153Z,19.63
2018-11-23T19:16:22.390Z,18.80
2018-11-23T19:18:52.178Z,19.27
2018-11-23T19:21:21.418Z,19.03
2018-11-23T19:23:50.591Z,18.27
2018-11-23T19:26:20.318Z,19.10
2018-11-23T19:28:49.602Z,21.17
2018-11-23T19:31:19.422Z,20.23
2018-11-23T19:33:48.670Z,20.40
2018-11-23T19:36:17.928Z,18.97
2018-11-23T19:38:48.478Z,20.07
2018-11-23T19:41:17.643Z,20.03
2018-11-23T19:43:47.238Z,20.03
2018-11-23T19:46:17.842Z,20.07
2018-11-23T19:48:47.463Z,18.93
2018-11-23T19:51:17.332Z,19.90
2018-11-23T19:53:47.600Z,20.17
2018-11-23T19:56:16.773Z,20.20
2018-11-23T19:58:46.021Z,20.00
2018-11-23T20:01:17.292Z,19.10
2018-11-23T20:03:46.474Z,19.17
2018-11-23T20:06:15.710Z,19.27
2018-11-23T20:08:46.166Z,19.57
2018-11-23T20:11:15.858Z,20.03
2018-11-23T20:13:45.497Z,19.33
2018-11-23T20:16:14.852Z,19.50
2018-11-23T20:18:44.032Z,20.27
2018-11-23T20:21:13.191Z,19.57
2018-11-23T20:23:45.138Z,23.13
2018-11-23T20:26:14.281Z,19.30
2018-11-23T20:28:43.491Z,19.27
2018-11-23T20:31:12.734Z,19.07
2018-11-23T20:33:41.923Z,19.93
2018-11-23T20:36:12.102Z,19.53
2018-11-23T20:38:41.986Z,19.10
2018-11-23T20:41:11.200Z,19.17
2018-11-23T20:43:40.382Z,20.00
2018-11-23T20:46:10.544Z,18.07
2018-11-23T20:48:40.659Z,19.57
2018-11-23T20:51:10.277Z,20.47
2018-11-23T20:53:39.837Z,19.53
2018-11-23T20:56:09.039Z,19.70
2018-11-23T20:58:38.340Z,19.33
2018-11-23T21:01:08.434Z,19.93
2018-11-23T21:03:37.582Z,19.37
2018-11-23T21:06:06.887Z,19.27
2018-11-23T21:08:36.275Z,19.43
2018-11-23T21:11:05.851Z,19.50
2018-11-23T21:13:36.456Z,19.63
2018-11-23T21:16:05.907Z,20.73
2018-11-23T21:18:35.090Z,19.47
2018-11-23T21:21:04.285Z,20.83
2018-11-23T21:23:34.842Z,20.77
2018-11-23T21:26:05.352Z,20.20
2018-11-23T21:28:34.563Z,19.80
2018-11-23T21:31:03.792Z,19.13
2018-11-23T21:33:32.969Z,19.50
2018-11-23T21:36:02.143Z,19.73
2018-11-23T21:38:33.604Z,19.93
2018-11-23T21:41:02.858Z,20.03
2018-11-23T21:43:32.079Z,19.40
2018-11-23T21:46:01.271Z,19.00
2018-11-23T21:48:30.469Z,20.13
2018-11-23T21:51:00.406Z,20.00
2018-11-23T21:53:30.235Z,19.90
2018-11-23T21:56:00.965Z,19.43
2018-11-23T21:58:30.162Z,19.60
2018-11-23T22:01:00.159Z,19.20
2018-11-23T22:03:29.960Z,18.73
2018-11-23T22:05:59.116Z,20.00
2018-11-23T22:08:28.294Z,19.63
2018-11-23T22:10:57.459Z,19.87
2018-11-23T22:13:27.813Z,20.43
2018-11-23T22:15:58.486Z,19.27
2018-11-23T22:18:27.675Z,19.67
2018-11-23T22:20:56.851Z,20.17
2018-11-23T22:23:26.583Z,19.13
2018-11-23T22:25:56.357Z,19.40
2018-11-23T22:28:25.546Z,18.70
2018-11-23T22:30:54.756Z,19.20
2018-11-23T22:33:23.949Z,18.87
2018-11-23T22:35:54.317Z,19.40
2018-11-23T22:38:23.471Z,22.23
2018-11-23T22:40:52.722Z,19.20
2018-11-23T22:43:21.939Z,19.77
2018-11-23T22:45:51.143Z,19.90
2018-11-23T22:48:21.284Z,18.40
2018-11-23T22:50:50.454Z,18.63
2018-11-23T22:53:21.804Z,19.13
2018-11-23T22:55:50.973Z,19.20
2018-11-23T22:58:21.874Z,18.80
2018-11-23T23:00:56.395Z,19.80
2018-11-23T23:03:25.570Z,19.03
2018-11-23T23:05:54.850Z,19.43
2018-11-23T23:08:24.459Z,18.53
2018-11-23T23:10:54.559Z,19.60
2018-11-23T23:13:23.807Z,19.20
2018-11-23T23:15:53.026Z,19.00
2018-11-23T23:18:22.286Z,18.73
2018-11-23T23:20:51.482Z,19.33
2018-11-23T23:23:22.183Z,20.10
2018-11-23T23:25:51.368Z,19.07
2018-11-23T23:28:20.562Z,19.13
2018-11-23T23:30:49.755Z,19.60
2018-11-23T23:33:18.914Z,20.10
2018-11-23T23:35:49.080Z,19.90
2018-11-23T23:38:18.398Z,19.57
2018-11-23T23:40:47.594Z,19.73
2018-11-23T23:43:16.793Z,19.33
2018-11-23T23:45:46.034Z,20.10
2018-11-23T23:48:16.568Z,19.90
2018-11-23T23:50:45.766Z,19.67
2018-11-23T23:53:15.023Z,20.37
2018-11-23T23:55:44.218Z,19.93
2018-11-23T23:58:13.412Z,19.03
